sensor_id;sensor_type;location;lat;lon;timestamp;P1;durP1;ratioP1;P2;durP2;ratioP2
5912;SDS011;2982;42.684;23.356;2022-11-30T00:00:51;1.80;;;1.70;;
5912;SDS011;2982;42.684;23.356;2022-11-30T00:03:16;1.80;;;1.57;;
5912;SDS011;2982;42.684;23.356;2022-11-30T00:05:41;2.03;;;1.60;;
5912;SDS011;2982;42.684;23.356;2022-11-30T00:08:07;1.57;;;1.40;;
5912;SDS011;2982;42.684;23.356;2022-11-30T00:10:32;2.40;;;1.90;;
5912;SDS011;2982;42.684;23.356;2022-11-30T00:12:57;1.83;;;1.67;;
5912;SDS011;2982;42.684;23.356;2022-11-30T00:15:22;1.80;;;1.30;;
5912;SDS011;2982;42.684;23.356;2022-11-30T00:17:48;2.73;;;1.87;;
5912;SDS011;2982;42.684;23.356;2022-11-30T00:20:13;2.60;;;2.40;;
5912;SDS011;2982;42.684;23.356;2022-11-30T00:22:39;2.33;;;1.80;;
5912;SDS011;2982;42.684;23.356;2022-11-30T00:25:05;3.27;;;2.53;;
5912;SDS011;2982;42.684;23.356;2022-11-30T00:27:31;3.23;;;2.93;;
5912;SDS011;2982;42.684;23.356;2022-11-30T00:29:57;3.50;;;3.20;;
5912;SDS011;2982;42.684;23.356;2022-11-30T00:32:24;2.60;;;2.40;;
5912;SDS011;2982;42.684;23.356;2022-11-30T00:34:50;4.00;;;2.80;;
5912;SDS011;2982;42.684;23.356;2022-11-30T00:37:15;1.77;;;1.67;;
5912;SDS011;2982;42.684;23.356;2022-11-30T00:39:41;2.20;;;2.10;;
5912;SDS011;2982;42.684;23.356;2022-11-30T00:42:06;5.67;;;2.00;;
5912;SDS011;2982;42.684;23.356;2022-11-30T00:44:32;2.50;;;1.97;;
5912;SDS011;2982;42.684;23.356;2022-11-30T00:46:57;2.13;;;1.93;;
5912;SDS011;2982;42.684;23.356;2022-11-30T00:49:22;1.80;;;1.70;;
5912;SDS011;2982;42.684;23.356;2022-11-30T00:51:47;2.03;;;1.30;;
5912;SDS011;2982;42.684;23.356;2022-11-30T00:54:13;1.60;;;1.50;;
5912;SDS011;2982;42.684;23.356;2022-11-30T00:56:38;1.80;;;1.70;;
5912;SDS011;2982;42.684;23.356;2022-11-30T00:59:03;2.40;;;2.20;;
5912;SDS011;2982;42.684;23.356;2022-11-30T01:01:29;2.43;;;2.23;;
5912;SDS011;2982;42.684;23.356;2022-11-30T01:03:54;5.27;;;3.40;;
5912;SDS011;2982;42.684;23.356;2022-11-30T01:06:19;2.90;;;2.70;;
5912;SDS011;2982;42.684;23.356;2022-11-30T01:08:44;3.40;;;3.10;;
5912;SDS011;2982;42.684;23.356;2022-11-30T01:11:17;2.70;;;2.50;;
5912;SDS011;2982;42.684;23.356;2022-11-30T01:13:46;2.47;;;2.27;;
5912;SDS011;2982;42.684;23.356;2022-11-30T01:16:13;4.10;;;2.37;;
5912;SDS011;2982;42.684;23.356;2022-11-30T01:18:41;6.60;;;4.13;;
5912;SDS011;2982;42.684;23.356;2022-11-30T01:21:07;6.37;;;4.33;;
5912;SDS011;2982;42.684;23.356;2022-11-30T01:23:34;5.67;;;4.90;;
5912;SDS011;2982;42.684;23.356;2022-11-30T01:25:59;5.70;;;4.90;;
5912;SDS011;2982;42.684;23.356;2022-11-30T01:28:24;4.10;;;3.80;;
5912;SDS011;2982;42.684;23.356;2022-11-30T01:31:00;5.03;;;4.63;;
5912;SDS011;2982;42.684;23.356;2022-11-30T01:33:27;4.10;;;3.80;;
5912;SDS011;2982;42.684;23.356;2022-11-30T01:36:06;3.70;;;3.30;;
5912;SDS011;2982;42.684;23.356;2022-11-30T01:38:35;5.03;;;3.97;;
5912;SDS011;2982;42.684;23.356;2022-11-30T01:41:06;3.47;;;3.17;;
5912;SDS011;2982;42.684;23.356;2022-11-30T01:43:52;6.17;;;3.80;;
5912;SDS011;2982;42.684;23.356;2022-11-30T01:49:12;3.43;;;3.13;;
5912;SDS011;2982;42.684;23.356;2022-11-30T01:51:50;2.47;;;2.27;;
5912;SDS011;2982;42.684;23.356;2022-11-30T01:54:35;2.57;;;2.37;;
5912;SDS011;2982;42.684;23.356;2022-11-30T01:57:07;2.07;;;1.97;;
5912;SDS011;2982;42.684;23.356;2022-11-30T01:59:40;2.13;;;2.03;;
5912;SDS011;2982;42.684;23.356;2022-11-30T02:02:06;2.40;;;2.20;;
5912;SDS011;2982;42.684;23.356;2022-11-30T02:04:31;3.07;;;2.87;;
5912;SDS011;2982;42.684;23.356;2022-11-30T02:07:00;3.77;;;2.50;;
5912;SDS011;2982;42.684;23.356;2022-11-30T02:09:27;2.90;;;2.70;;
5912;SDS011;2982;42.684;23.356;2022-11-30T02:11:53;2.87;;;2.60;;
5912;SDS011;2982;42.684;23.356;2022-11-30T02:17:19;2.40;;;2.20;;
5912;SDS011;2982;42.684;23.356;2022-11-30T02:23:01;2.67;;;2.47;;
5912;SDS011;2982;42.684;23.356;2022-11-30T02:31:22;2.07;;;1.93;;
5912;SDS011;2982;42.684;23.356;2022-11-30T02:33:52;2.00;;;1.90;;
5912;SDS011;2982;42.684;23.356;2022-11-30T02:36:20;1.63;;;1.53;;
5912;SDS011;2982;42.684;23.356;2022-11-30T02:38:46;2.00;;;1.90;;
5912;SDS011;2982;42.684;23.356;2022-11-30T02:41:12;2.07;;;1.93;;
5912;SDS011;2982;42.684;23.356;2022-11-30T02:43:37;2.77;;;2.57;;
5912;SDS011;2982;42.684;23.356;2022-11-30T02:46:18;3.73;;;2.10;;
5912;SDS011;2982;42.684;23.356;2022-11-30T02:49:10;2.63;;;2.43;;
5912;SDS011;2982;42.684;23.356;2022-11-30T02:51:59;4.10;;;2.00;;
5912;SDS011;2982;42.684;23.356;2022-11-30T02:54:27;2.80;;;2.60;;
5912;SDS011;2982;42.684;23.356;2022-11-30T02:56:53;2.50;;;2.30;;
5912;SDS011;2982;42.684;23.356;2022-11-30T02:59:18;2.20;;;2.07;;
5912;SDS011;2982;42.684;23.356;2022-11-30T03:01:44;2.17;;;2.03;;
5912;SDS011;2982;42.684;23.356;2022-11-30T03:04:09;2.50;;;2.30;;
5912;SDS011;2982;42.684;23.356;2022-11-30T03:06:35;2.47;;;2.27;;
5912;SDS011;2982;42.684;23.356;2022-11-30T03:09:00;2.77;;;2.40;;
5912;SDS011;2982;42.684;23.356;2022-11-30T03:11:25;3.73;;;2.27;;
5912;SDS011;2982;42.684;23.356;2022-11-30T03:13:51;2.33;;;2.13;;
5912;SDS011;2982;42.684;23.356;2022-11-30T03:16:16;1.90;;;1.80;;
5912;SDS011;2982;42.684;23.356;2022-11-30T03:18:41;2.13;;;1.90;;
5912;SDS011;2982;42.684;23.356;2022-11-30T03:21:07;2.53;;;2.00;;
5912;SDS011;2982;42.684;23.356;2022-11-30T03:23:34;3.07;;;1.90;;
5912;SDS011;2982;42.684;23.356;2022-11-30T03:26:00;1.60;;;1.50;;
5912;SDS011;2982;42.684;23.356;2022-11-30T03:28:26;4.97;;;2.07;;
5912;SDS011;2982;42.684;23.356;2022-11-30T03:30:52;3.57;;;2.07;;
5912;SDS011;2982;42.684;23.356;2022-11-30T03:33:17;5.80;;;2.37;;
5912;SDS011;2982;42.684;23.356;2022-11-30T03:35:43;4.63;;;2.77;;
5912;SDS011;2982;42.684;23.356;2022-11-30T03:38:09;2.43;;;2.20;;
5912;SDS011;2982;42.684;23.356;2022-11-30T03:40:37;2.63;;;2.27;;
5912;SDS011;2982;42.684;23.356;2022-11-30T03:43:02;2.53;;;2.33;;
5912;SDS011;2982;42.684;23.356;2022-11-30T03:45:28;3.13;;;1.93;;
5912;SDS011;2982;42.684;23.356;2022-11-30T03:47:53;2.07;;;1.97;;
5912;SDS011;2982;42.684;23.356;2022-11-30T03:50:18;2.30;;;2.10;;
5912;SDS011;2982;42.684;23.356;2022-11-30T03:52:44;2.20;;;2.00;;
5912;SDS011;2982;42.684;23.356;2022-11-30T03:55:09;2.67;;;1.90;;
5912;SDS011;2982;42.684;23.356;2022-11-30T03:57:34;2.10;;;2.00;;
5912;SDS011;2982;42.684;23.356;2022-11-30T04:00:00;2.40;;;2.20;;
5912;SDS011;2982;42.684;23.356;2022-11-30T04:02:25;2.60;;;2.40;;
5912;SDS011;2982;42.684;23.356;2022-11-30T04:04:50;2.30;;;2.20;;
5912;SDS011;2982;42.684;23.356;2022-11-30T04:07:16;2.73;;;2.53;;
5912;SDS011;2982;42.684;23.356;2022-11-30T04:09:41;4.37;;;3.03;;
5912;SDS011;2982;42.684;23.356;2022-11-30T04:12:06;2.83;;;2.63;;
5912;SDS011;2982;42.684;23.356;2022-11-30T04:14:31;3.50;;;3.20;;
5912;SDS011;2982;42.684;23.356;2022-11-30T04:16:57;3.40;;;3.20;;
5912;SDS011;2982;42.684;23.356;2022-11-30T04:19:22;4.37;;;3.30;;
5912;SDS011;2982;42.684;23.356;2022-11-30T04:21:47;2.80;;;2.60;;
5912;SDS011;2982;42.684;23.356;2022-11-30T04:24:12;3.13;;;2.93;;
5912;SDS011;2982;42.684;23.356;2022-11-30T04:26:38;2.40;;;2.20;;
5912;SDS011;2982;42.684;23.356;2022-11-30T04:29:03;1.90;;;1.80;;
5912;SDS011;2982;42.684;23.356;2022-11-30T04:31:28;2.43;;;2.30;;
5912;SDS011;2982;42.684;23.356;2022-11-30T04:33:54;2.10;;;2.00;;
5912;SDS011;2982;42.684;23.356;2022-11-30T04:36:19;4.73;;;2.50;;
5912;SDS011;2982;42.684;23.356;2022-11-30T04:38:45;2.70;;;2.50;;
5912;SDS011;2982;42.684;23.356;2022-11-30T04:41:10;3.57;;;2.10;;
5912;SDS011;2982;42.684;23.356;2022-11-30T04:43:36;2.43;;;2.23;;
5912;SDS011;2982;42.684;23.356;2022-11-30T04:46:02;2.33;;;2.23;;
5912;SDS011;2982;42.684;23.356;2022-11-30T04:48:28;5.97;;;3.10;;
5912;SDS011;2982;42.684;23.356;2022-11-30T04:50:53;2.37;;;2.17;;
5912;SDS011;2982;42.684;23.356;2022-11-30T04:53:23;3.17;;;2.90;;
5912;SDS011;2982;42.684;23.356;2022-11-30T04:55:48;2.80;;;2.60;;
5912;SDS011;2982;42.684;23.356;2022-11-30T04:58:14;2.70;;;2.50;;
5912;SDS011;2982;42.684;23.356;2022-11-30T05:00:39;4.53;;;2.50;;
5912;SDS011;2982;42.684;23.356;2022-11-30T05:03:04;2.23;;;2.07;;
5912;SDS011;2982;42.684;23.356;2022-11-30T05:05:29;2.90;;;2.17;;
5912;SDS011;2982;42.684;23.356;2022-11-30T05:07:55;2.93;;;2.73;;
5912;SDS011;2982;42.684;23.356;2022-11-30T05:10:22;3.30;;;2.43;;
5912;SDS011;2982;42.684;23.356;2022-11-30T05:12:47;2.70;;;1.90;;
5912;SDS011;2982;42.684;23.356;2022-11-30T05:15:13;2.00;;;1.80;;
5912;SDS011;2982;42.684;23.356;2022-11-30T05:17:38;1.57;;;1.47;;
5912;SDS011;2982;42.684;23.356;2022-11-30T05:20:03;1.40;;;1.30;;
5912;SDS011;2982;42.684;23.356;2022-11-30T05:22:29;2.27;;;2.07;;
5912;SDS011;2982;42.684;23.356;2022-11-30T05:24:55;1.97;;;1.77;;
5912;SDS011;2982;42.684;23.356;2022-11-30T05:27:20;2.10;;;1.87;;
5912;SDS011;2982;42.684;23.356;2022-11-30T05:29:45;2.63;;;2.20;;
5912;SDS011;2982;42.684;23.356;2022-11-30T05:32:11;2.50;;;2.30;;
5912;SDS011;2982;42.684;23.356;2022-11-30T05:34:36;5.47;;;3.73;;
5912;SDS011;2982;42.684;23.356;2022-11-30T05:37:01;3.43;;;3.13;;
5912;SDS011;2982;42.684;23.356;2022-11-30T05:39:26;3.60;;;3.17;;
5912;SDS011;2982;42.684;23.356;2022-11-30T05:41:52;2.60;;;2.40;;
5912;SDS011;2982;42.684;23.356;2022-11-30T05:44:17;3.37;;;3.07;;
5912;SDS011;2982;42.684;23.356;2022-11-30T05:46:42;4.00;;;3.17;;
5912;SDS011;2982;42.684;23.356;2022-11-30T05:49:08;3.70;;;3.00;;
5912;SDS011;2982;42.684;23.356;2022-11-30T05:51:33;3.27;;;2.97;;
5912;SDS011;2982;42.684;23.356;2022-11-30T05:53:58;3.07;;;2.77;;
5912;SDS011;2982;42.684;23.356;2022-11-30T05:56:23;4.77;;;3.10;;
5912;SDS011;2982;42.684;23.356;2022-11-30T05:58:49;2.73;;;2.53;;
5912;SDS011;2982;42.684;23.356;2022-11-30T06:03:42;2.10;;;2.00;;
5912;SDS011;2982;42.684;23.356;2022-11-30T06:06:07;3.00;;;2.37;;
5912;SDS011;2982;42.684;23.356;2022-11-30T06:08:33;2.30;;;2.10;;
5912;SDS011;2982;42.684;23.356;2022-11-30T06:10:59;3.80;;;3.13;;
5912;SDS011;2982;42.684;23.356;2022-11-30T06:13:25;2.83;;;2.07;;
5912;SDS011;2982;42.684;23.356;2022-11-30T06:15:50;2.53;;;2.33;;
5912;SDS011;2982;42.684;23.356;2022-11-30T06:18:15;4.17;;;2.20;;
5912;SDS011;2982;42.684;23.356;2022-11-30T06:20:42;3.83;;;2.17;;
5912;SDS011;2982;42.684;23.356;2022-11-30T06:23:07;3.30;;;2.10;;
5912;SDS011;2982;42.684;23.356;2022-11-30T06:25:32;1.80;;;1.70;;
5912;SDS011;2982;42.684;23.356;2022-11-30T06:27:57;1.63;;;1.53;;
5912;SDS011;2982;42.684;23.356;2022-11-30T06:30:23;1.23;;;1.13;;
5912;SDS011;2982;42.684;23.356;2022-11-30T06:32:49;2.10;;;1.30;;
5912;SDS011;2982;42.684;23.356;2022-11-30T06:35:16;1.60;;;1.50;;
5912;SDS011;2982;42.684;23.356;2022-11-30T06:37:42;1.53;;;1.20;;
5912;SDS011;2982;42.684;23.356;2022-11-30T06:40:08;1.80;;;1.70;;
5912;SDS011;2982;42.684;23.356;2022-11-30T06:42:35;1.40;;;1.30;;
5912;SDS011;2982;42.684;23.356;2022-11-30T06:45:01;3.20;;;1.73;;
5912;SDS011;2982;42.684;23.356;2022-11-30T06:47:27;2.63;;;2.10;;
5912;SDS011;2982;42.684;23.356;2022-11-30T06:49:52;1.97;;;1.87;;
5912;SDS011;2982;42.684;23.356;2022-11-30T06:52:18;2.33;;;2.13;;
5912;SDS011;2982;42.684;23.356;2022-11-30T06:54:43;4.90;;;2.43;;
5912;SDS011;2982;42.684;23.356;2022-11-30T06:57:09;3.07;;;2.50;;
5912;SDS011;2982;42.684;23.356;2022-11-30T06:59:34;2.73;;;2.53;;
5912;SDS011;2982;42.684;23.356;2022-11-30T07:02:00;3.53;;;3.23;;
5912;SDS011;2982;42.684;23.356;2022-11-30T07:04:25;4.07;;;3.77;;
5912;SDS011;2982;42.684;23.356;2022-11-30T07:06:50;9.07;;;3.80;;
5912;SDS011;2982;42.684;23.356;2022-11-30T07:09:15;4.07;;;3.73;;
5912;SDS011;2982;42.684;23.356;2022-11-30T07:11:41;4.20;;;3.80;;
5912;SDS011;2982;42.684;23.356;2022-11-30T07:14:06;4.50;;;4.10;;
5912;SDS011;2982;42.684;23.356;2022-11-30T07:16:31;5.47;;;4.97;;
5912;SDS011;2982;42.684;23.356;2022-11-30T07:18:56;7.80;;;5.07;;
5912;SDS011;2982;42.684;23.356;2022-11-30T07:21:22;7.57;;;5.97;;
5912;SDS011;2982;42.684;23.356;2022-11-30T07:23:47;5.80;;;5.07;;
5912;SDS011;2982;42.684;23.356;2022-11-30T07:26:12;9.67;;;5.03;;
5912;SDS011;2982;42.684;23.356;2022-11-30T07:28:39;4.17;;;3.40;;
5912;SDS011;2982;42.684;23.356;2022-11-30T07:31:16;3.90;;;3.50;;
5912;SDS011;2982;42.684;23.356;2022-11-30T07:33:47;3.00;;;2.70;;
5912;SDS011;2982;42.684;23.356;2022-11-30T07:36:13;3.40;;;2.70;;
5912;SDS011;2982;42.684;23.356;2022-11-30T07:38:39;2.03;;;1.93;;
5912;SDS011;2982;42.684;23.356;2022-11-30T07:41:04;2.47;;;2.30;;
5912;SDS011;2982;42.684;23.356;2022-11-30T07:43:32;4.07;;;3.13;;
5912;SDS011;2982;42.684;23.356;2022-11-30T07:45:57;2.63;;;2.43;;
5912;SDS011;2982;42.684;23.356;2022-11-30T07:48:23;3.50;;;3.20;;
5912;SDS011;2982;42.684;23.356;2022-11-30T07:50:49;3.90;;;2.83;;
5912;SDS011;2982;42.684;23.356;2022-11-30T07:53:14;3.03;;;2.63;;
5912;SDS011;2982;42.684;23.356;2022-11-30T07:55:40;3.07;;;2.60;;
5912;SDS011;2982;42.684;23.356;2022-11-30T07:58:06;3.50;;;3.20;;
5912;SDS011;2982;42.684;23.356;2022-11-30T08:00:31;3.07;;;2.40;;
5912;SDS011;2982;42.684;23.356;2022-11-30T08:02:57;6.57;;;2.60;;
5912;SDS011;2982;42.684;23.356;2022-11-30T08:05:22;1.73;;;1.63;;
5912;SDS011;2982;42.684;23.356;2022-11-30T08:07:51;2.53;;;1.50;;
5912;SDS011;2982;42.684;23.356;2022-11-30T08:10:18;1.80;;;1.70;;
5912;SDS011;2982;42.684;23.356;2022-11-30T08:12:44;1.20;;;1.10;;
5912;SDS011;2982;42.684;23.356;2022-11-30T08:15:09;1.97;;;1.77;;
5912;SDS011;2982;42.684;23.356;2022-11-30T08:17:35;2.47;;;1.43;;
5912;SDS011;2982;42.684;23.356;2022-11-30T08:20:00;1.03;;;1.00;;
5912;SDS011;2982;42.684;23.356;2022-11-30T08:22:25;2.57;;;1.10;;
5912;SDS011;2982;42.684;23.356;2022-11-30T08:24:51;1.60;;;1.40;;
5912;SDS011;2982;42.684;23.356;2022-11-30T08:27:16;2.53;;;1.10;;
5912;SDS011;2982;42.684;23.356;2022-11-30T08:29:41;1.53;;;1.13;;
5912;SDS011;2982;42.684;23.356;2022-11-30T08:32:07;2.50;;;1.60;;
5912;SDS011;2982;42.684;23.356;2022-11-30T08:34:32;2.47;;;1.67;;
5912;SDS011;2982;42.684;23.356;2022-11-30T08:36:57;2.47;;;1.23;;
5912;SDS011;2982;42.684;23.356;2022-11-30T08:39:22;1.63;;;1.00;;
5912;SDS011;2982;42.684;23.356;2022-11-30T08:41:48;1.53;;;0.83;;
5912;SDS011;2982;42.684;23.356;2022-11-30T08:44:13;0.93;;;0.80;;
5912;SDS011;2982;42.684;23.356;2022-11-30T08:46:38;2.13;;;0.80;;
5912;SDS011;2982;42.684;23.356;2022-11-30T08:49:03;3.23;;;1.00;;
5912;SDS011;2982;42.684;23.356;2022-11-30T08:51:29;1.33;;;1.23;;
5912;SDS011;2982;42.684;23.356;2022-11-30T08:53:54;1.67;;;1.37;;
5912;SDS011;2982;42.684;23.356;2022-11-30T08:56:20;1.23;;;1.13;;
5912;SDS011;2982;42.684;23.356;2022-11-30T08:58:46;1.57;;;1.00;;
5912;SDS011;2982;42.684;23.356;2022-11-30T09:03:37;5.43;;;1.63;;
5912;SDS011;2982;42.684;23.356;2022-11-30T09:06:03;3.90;;;1.33;;
5912;SDS011;2982;42.684;23.356;2022-11-30T09:08:39;2.03;;;1.37;;
5912;SDS011;2982;42.684;23.356;2022-11-30T09:11:15;2.57;;;1.03;;
5912;SDS011;2982;42.684;23.356;2022-11-30T09:13:46;2.20;;;2.00;;
5912;SDS011;2982;42.684;23.356;2022-11-30T09:16:12;2.33;;;1.63;;
5912;SDS011;2982;42.684;23.356;2022-11-30T09:18:39;1.73;;;1.60;;
5912;SDS011;2982;42.684;23.356;2022-11-30T09:21:05;1.40;;;1.30;;
5912;SDS011;2982;42.684;23.356;2022-11-30T09:23:36;2.10;;;1.00;;
5912;SDS011;2982;42.684;23.356;2022-11-30T09:26:02;1.10;;;1.00;;
5912;SDS011;2982;42.684;23.356;2022-11-30T09:28:29;1.37;;;1.27;;
5912;SDS011;2982;42.684;23.356;2022-11-30T09:31:01;1.73;;;1.10;;
5912;SDS011;2982;42.684;23.356;2022-11-30T09:33:28;1.60;;;1.00;;
5912;SDS011;2982;42.684;23.356;2022-11-30T09:35:57;0.80;;;0.80;;
5912;SDS011;2982;42.684;23.356;2022-11-30T09:38:24;1.33;;;1.23;;
5912;SDS011;2982;42.684;23.356;2022-11-30T09:40:53;0.90;;;0.90;;
5912;SDS011;2982;42.684;23.356;2022-11-30T09:43:24;1.87;;;1.00;;
5912;SDS011;2982;42.684;23.356;2022-11-30T09:46:10;1.33;;;1.00;;
5912;SDS011;2982;42.684;23.356;2022-11-30T09:51:47;6.63;;;1.47;;
5912;SDS011;2982;42.684;23.356;2022-11-30T09:54:14;3.40;;;1.17;;
5912;SDS011;2982;42.684;23.356;2022-11-30T09:56:44;1.00;;;0.87;;
5912;SDS011;2982;42.684;23.356;2022-11-30T10:01:42;1.50;;;1.03;;
5912;SDS011;2982;42.684;23.356;2022-11-30T10:04:29;1.37;;;1.00;;
5912;SDS011;2982;42.684;23.356;2022-11-30T10:12:12;1.30;;;0.97;;
5912;SDS011;2982;42.684;23.356;2022-11-30T10:14:48;1.30;;;1.10;;
5912;SDS011;2982;42.684;23.356;2022-11-30T10:17:21;1.40;;;1.30;;
5912;SDS011;2982;42.684;23.356;2022-11-30T10:27:48;1.37;;;1.27;;
5912;SDS011;2982;42.684;23.356;2022-11-30T10:30:22;1.57;;;1.47;;
5912;SDS011;2982;42.684;23.356;2022-11-30T10:32:50;1.27;;;1.17;;
5912;SDS011;2982;42.684;23.356;2022-11-30T10:35:43;1.80;;;1.13;;
5912;SDS011;2982;42.684;23.356;2022-11-30T10:38:22;1.77;;;1.33;;
5912;SDS011;2982;42.684;23.356;2022-11-30T10:46:54;2.73;;;1.30;;
5912;SDS011;2982;42.684;23.356;2022-11-30T10:49:19;1.50;;;1.40;;
5912;SDS011;2982;42.684;23.356;2022-11-30T10:51:46;1.10;;;1.00;;
5912;SDS011;2982;42.684;23.356;2022-11-30T10:54:18;2.73;;;1.47;;
5912;SDS011;2982;42.684;23.356;2022-11-30T10:56:46;3.17;;;1.90;;
5912;SDS011;2982;42.684;23.356;2022-11-30T11:01:51;1.40;;;1.27;;
5912;SDS011;2982;42.684;23.356;2022-11-30T11:09:43;1.50;;;1.40;;
5912;SDS011;2982;42.684;23.356;2022-11-30T11:12:20;1.73;;;1.63;;
5912;SDS011;2982;42.684;23.356;2022-11-30T11:14:51;2.23;;;2.03;;
5912;SDS011;2982;42.684;23.356;2022-11-30T11:17:32;2.60;;;1.87;;
5912;SDS011;2982;42.684;23.356;2022-11-30T11:19:57;2.23;;;2.03;;
5912;SDS011;2982;42.684;23.356;2022-11-30T11:22:23;8.00;;;5.27;;
5912;SDS011;2982;42.684;23.356;2022-11-30T11:25:36;2.30;;;1.80;;
5912;SDS011;2982;42.684;23.356;2022-11-30T11:27:56;2.73;;;1.63;;
5912;SDS011;2982;42.684;23.356;2022-11-30T11:30:28;4.37;;;2.33;;
5912;SDS011;2982;42.684;23.356;2022-11-30T11:32:59;2.47;;;1.70;;
5912;SDS011;2982;42.684;23.356;2022-11-30T11:35:38;2.93;;;1.90;;
5912;SDS011;2982;42.684;23.356;2022-11-30T11:43:18;3.03;;;1.00;;
5912;SDS011;2982;42.684;23.356;2022-11-30T11:45:49;1.30;;;1.20;;
5912;SDS011;2982;42.684;23.356;2022-11-30T11:53:59;1.63;;;1.53;;
5912;SDS011;2982;42.684;23.356;2022-11-30T11:56:33;1.93;;;1.40;;
5912;SDS011;2982;42.684;23.356;2022-11-30T12:04:55;2.03;;;1.80;;
5912;SDS011;2982;42.684;23.356;2022-11-30T12:07:34;2.30;;;2.10;;
5912;SDS011;2982;42.684;23.356;2022-11-30T12:12:37;2.17;;;1.90;;
5912;SDS011;2982;42.684;23.356;2022-11-30T12:15:02;2.60;;;2.03;;
5912;SDS011;2982;42.684;23.356;2022-11-30T12:25:48;10.90;;;3.03;;
5912;SDS011;2982;42.684;23.356;2022-11-30T12:28:33;2.57;;;2.37;;
5912;SDS011;2982;42.684;23.356;2022-11-30T12:31:14;3.13;;;2.13;;
5912;SDS011;2982;42.684;23.356;2022-11-30T12:39:13;2.27;;;1.93;;
5912;SDS011;2982;42.684;23.356;2022-11-30T12:41:49;3.13;;;1.30;;
5912;SDS011;2982;42.684;23.356;2022-11-30T12:52:24;2.37;;;2.17;;
5912;SDS011;2982;42.684;23.356;2022-11-30T12:55:14;6.30;;;1.90;;
5912;SDS011;2982;42.684;23.356;2022-11-30T13:00:23;4.73;;;2.00;;
5912;SDS011;2982;42.684;23.356;2022-11-30T13:05:32;3.33;;;1.90;;
5912;SDS011;2982;42.684;23.356;2022-11-30T13:08:04;3.37;;;2.00;;
5912;SDS011;2982;42.684;23.356;2022-11-30T13:10:39;1.67;;;1.57;;
5912;SDS011;2982;42.684;23.356;2022-11-30T13:13:12;3.93;;;1.90;;
5912;SDS011;2982;42.684;23.356;2022-11-30T13:15:42;3.13;;;1.97;;
5912;SDS011;2982;42.684;23.356;2022-11-30T13:18:10;5.50;;;1.73;;
5912;SDS011;2982;42.684;23.356;2022-11-30T13:26:29;1.57;;;1.47;;
5912;SDS011;2982;42.684;23.356;2022-11-30T13:29:09;1.77;;;1.67;;
5912;SDS011;2982;42.684;23.356;2022-11-30T13:34:27;1.30;;;1.20;;
5912;SDS011;2982;42.684;23.356;2022-11-30T13:37:03;1.30;;;1.20;;
5912;SDS011;2982;42.684;23.356;2022-11-30T13:44:30;1.47;;;1.37;;
5912;SDS011;2982;42.684;23.356;2022-11-30T13:46:57;5.90;;;1.60;;
5912;SDS011;2982;42.684;23.356;2022-11-30T13:49:28;2.30;;;1.23;;
5912;SDS011;2982;42.684;23.356;2022-11-30T13:51:58;1.60;;;1.50;;
5912;SDS011;2982;42.684;23.356;2022-11-30T14:00:59;1.27;;;1.17;;
5912;SDS011;2982;42.684;23.356;2022-11-30T14:02:53;1.57;;;1.30;;
5912;SDS011;2982;42.684;23.356;2022-11-30T14:05:20;3.40;;;1.23;;
5912;SDS011;2982;42.684;23.356;2022-11-30T14:10:26;0.97;;;0.97;;
5912;SDS011;2982;42.684;23.356;2022-11-30T14:13:02;2.43;;;2.23;;
5912;SDS011;2982;42.684;23.356;2022-11-30T14:15:49;6.60;;;4.17;;
5912;SDS011;2982;42.684;23.356;2022-11-30T14:18:15;1.20;;;1.10;;
5912;SDS011;2982;42.684;23.356;2022-11-30T14:23:12;1.77;;;1.30;;
5912;SDS011;2982;42.684;23.356;2022-11-30T14:25:40;1.87;;;1.40;;
5912;SDS011;2982;42.684;23.356;2022-11-30T14:28:12;1.33;;;1.23;;
5912;SDS011;2982;42.684;23.356;2022-11-30T14:30:42;4.90;;;1.33;;
5912;SDS011;2982;42.684;23.356;2022-11-30T14:33:18;1.40;;;1.07;;
5912;SDS011;2982;42.684;23.356;2022-11-30T14:35:55;0.97;;;0.90;;
5912;SDS011;2982;42.684;23.356;2022-11-30T14:38:24;1.50;;;1.13;;
5912;SDS011;2982;42.684;23.356;2022-11-30T14:40:52;3.43;;;1.30;;
5912;SDS011;2982;42.684;23.356;2022-11-30T14:43:18;2.80;;;1.57;;
5912;SDS011;2982;42.684;23.356;2022-11-30T14:45:57;1.37;;;1.23;;
5912;SDS011;2982;42.684;23.356;2022-11-30T14:48:24;1.90;;;1.40;;
5912;SDS011;2982;42.684;23.356;2022-11-30T14:50:59;1.33;;;1.23;;
5912;SDS011;2982;42.684;23.356;2022-11-30T14:53:39;5.70;;;4.40;;
5912;SDS011;2982;42.684;23.356;2022-11-30T14:56:14;3.93;;;1.90;;
5912;SDS011;2982;42.684;23.356;2022-11-30T14:58:54;1.83;;;1.47;;
5912;SDS011;2982;42.684;23.356;2022-11-30T15:01:27;2.80;;;1.47;;
5912;SDS011;2982;42.684;23.356;2022-11-30T15:03:57;1.80;;;1.57;;
5912;SDS011;2982;42.684;23.356;2022-11-30T15:06:38;2.37;;;1.60;;
5912;SDS011;2982;42.684;23.356;2022-11-30T15:09:04;1.63;;;1.50;;
5912;SDS011;2982;42.684;23.356;2022-11-30T15:11:40;2.20;;;2.00;;
5912;SDS011;2982;42.684;23.356;2022-11-30T15:14:07;3.13;;;1.97;;
5912;SDS011;2982;42.684;23.356;2022-11-30T15:16:34;1.73;;;1.30;;
5912;SDS011;2982;42.684;23.356;2022-11-30T15:19:00;3.87;;;2.10;;
5912;SDS011;2982;42.684;23.356;2022-11-30T15:21:43;1.80;;;1.70;;
5912;SDS011;2982;42.684;23.356;2022-11-30T15:24:10;2.30;;;2.07;;
5912;SDS011;2982;42.684;23.356;2022-11-30T15:26:36;3.37;;;1.90;;
5912;SDS011;2982;42.684;23.356;2022-11-30T15:29:06;3.07;;;2.10;;
5912;SDS011;2982;42.684;23.356;2022-11-30T15:31:37;3.90;;;2.20;;
5912;SDS011;2982;42.684;23.356;2022-11-30T15:34:05;2.50;;;1.90;;
5912;SDS011;2982;42.684;23.356;2022-11-30T15:36:40;3.43;;;3.03;;
5912;SDS011;2982;42.684;23.356;2022-11-30T15:39:06;3.20;;;1.50;;
5912;SDS011;2982;42.684;23.356;2022-11-30T15:41:38;1.73;;;1.63;;
5912;SDS011;2982;42.684;23.356;2022-11-30T15:44:04;2.30;;;2.10;;
5912;SDS011;2982;42.684;23.356;2022-11-30T15:46:36;3.83;;;1.97;;
5912;SDS011;2982;42.684;23.356;2022-11-30T15:49:16;2.10;;;1.80;;
5912;SDS011;2982;42.684;23.356;2022-11-30T15:51:47;2.27;;;1.40;;
5912;SDS011;2982;42.684;23.356;2022-11-30T15:54:44;2.70;;;2.30;;
5912;SDS011;2982;42.684;23.356;2022-11-30T15:57:21;2.60;;;2.10;;
5912;SDS011;2982;42.684;23.356;2022-11-30T16:00:07;2.63;;;2.30;;
5912;SDS011;2982;42.684;23.356;2022-11-30T16:02:43;3.20;;;1.90;;
5912;SDS011;2982;42.684;23.356;2022-11-30T16:07:37;5.07;;;1.77;;
5912;SDS011;2982;42.684;23.356;2022-11-30T16:10:16;1.87;;;1.77;;
5912;SDS011;2982;42.684;23.356;2022-11-30T16:12:45;2.40;;;2.10;;
5912;SDS011;2982;42.684;23.356;2022-11-30T16:17:50;2.93;;;1.93;;
5912;SDS011;2982;42.684;23.356;2022-11-30T16:20:17;3.13;;;2.00;;
5912;SDS011;2982;42.684;23.356;2022-11-30T16:22:44;3.10;;;2.07;;
5912;SDS011;2982;42.684;23.356;2022-11-30T16:25:13;4.43;;;1.50;;
5912;SDS011;2982;42.684;23.356;2022-11-30T16:27:44;3.70;;;1.97;;
5912;SDS011;2982;42.684;23.356;2022-11-30T16:30:12;2.73;;;1.60;;
5912;SDS011;2982;42.684;23.356;2022-11-30T16:32:39;3.23;;;1.83;;
5912;SDS011;2982;42.684;23.356;2022-11-30T16:37:49;1.80;;;1.70;;
5912;SDS011;2982;42.684;23.356;2022-11-30T16:40:15;2.67;;;1.63;;
5912;SDS011;2982;42.684;23.356;2022-11-30T16:42:41;2.43;;;1.50;;
5912;SDS011;2982;42.684;23.356;2022-11-30T16:45:15;1.60;;;1.50;;
5912;SDS011;2982;42.684;23.356;2022-11-30T16:47:43;1.60;;;1.50;;
5912;SDS011;2982;42.684;23.356;2022-11-30T16:50:09;4.90;;;2.80;;
5912;SDS011;2982;42.684;23.356;2022-11-30T16:52:36;4.50;;;1.63;;
5912;SDS011;2982;42.684;23.356;2022-11-30T16:55:01;1.90;;;1.77;;
5912;SDS011;2982;42.684;23.356;2022-11-30T16:57:27;6.40;;;2.53;;
5912;SDS011;2982;42.684;23.356;2022-11-30T16:59:52;2.87;;;1.47;;
5912;SDS011;2982;42.684;23.356;2022-11-30T17:02:19;1.60;;;1.47;;
5912;SDS011;2982;42.684;23.356;2022-11-30T17:04:46;1.77;;;1.50;;
5912;SDS011;2982;42.684;23.356;2022-11-30T17:07:12;1.40;;;1.17;;
5912;SDS011;2982;42.684;23.356;2022-11-30T17:09:37;2.60;;;2.37;;
5912;SDS011;2982;42.684;23.356;2022-11-30T17:12:03;2.63;;;1.70;;
5912;SDS011;2982;42.684;23.356;2022-11-30T17:14:28;1.80;;;1.53;;
5912;SDS011;2982;42.684;23.356;2022-11-30T17:16:53;1.47;;;1.23;;
5912;SDS011;2982;42.684;23.356;2022-11-30T17:19:19;3.37;;;1.87;;